Terminal Aerodrome Forecast
Issued by NWS Buffalo, NY

Home | Current Version | Previous Version | Text Only | Print | Product List | Glossary On
Versions: 1 2 3 4 5 6 7 8 9 10 11 12 13 14 15 16 17 18 19 20 21 22 23 24 25 26 27 28 29
000
FTUS41 KBUF 042152 AAB
TAFBUF
TAF AMD
KBUF 042152Z 0422/0518 24009KT P6SM VCTS BKN045CB
      TEMPO 0422/0423 28025G38KT 3SM TSRA BKN030CB
     FM050100 25005KT P6SM BKN045
     FM050900 28004KT P6SM BKN070 BKN200
     FM051500 29012KT P6SM BKN250=

USA.gov is the U.S. government's official web portal to all federal, state and local government web resources and services.